KHDO

South Texas Regional at Hondo Airport

Hondo, Texas, USA
METAR KHDO 190851Z AUTO 15005KT 10SM OVC006 26/24 A2996 RMK AO2 SLP128 T02560239 57003
Observed Flight Rules
Sep-19 @ 08:51 UTC (16 minutes ago) Instrument Flight Rules
Wind Visibility Clouds
150° at 5 knots 10 miles
  • Overcast at 600' AGL
Temperatures Readings
Current 26°C / 79°F
Dewpoint 24°C / 75°F
Humidity 89%
Altimeter 29.96" Hg
Pressure 1012.8 hPa
Elevation 282
METAR KHDO 190851Z AUTO 15005KT 10SM OVC006 26/24 A2996 RMK AO2 SLP128 T02560239 57003
Observed Flight Rules
Sep-19 @ 08:51 UTC
(16 minutes ago)
IFR
Wind Visibility
150° at 5 knots 10 miles
Clouds
  • Overcast at 600' AGL
Temperature Dewpoint
26°C / 79°F 24°C / 75°F
Humidity Altimeter Pressure
89% 29.96" Hg 1012.8 hPa